sensor_id;sensor_type;location;lat;lon;timestamp;P1;durP1;ratioP1;P2;durP2;ratioP2
68523;SDS011;55524;51.380;13.372;2022-08-19T00:00:06;13.32;;;11.93;;
68523;SDS011;55524;51.380;13.372;2022-08-19T00:02:34;13.57;;;12.18;;
68523;SDS011;55524;51.380;13.372;2022-08-19T00:05:01;15.73;;;12.45;;
68523;SDS011;55524;51.380;13.372;2022-08-19T00:07:28;14.18;;;12.35;;
68523;SDS011;55524;51.380;13.372;2022-08-19T00:09:54;15.25;;;12.43;;
68523;SDS011;55524;51.380;13.372;2022-08-19T00:12:21;13.77;;;11.98;;
68523;SDS011;55524;51.380;13.372;2022-08-19T00:14:47;18.33;;;12.88;;
68523;SDS011;55524;51.380;13.372;2022-08-19T00:17:13;14.77;;;13.27;;
68523;SDS011;55524;51.380;13.372;2022-08-19T00:19:40;20.33;;;14.82;;
68523;SDS011;55524;51.380;13.372;2022-08-19T00:22:06;18.27;;;15.60;;
68523;SDS011;55524;51.380;13.372;2022-08-19T00:24:33;22.27;;;15.90;;
68523;SDS011;55524;51.380;13.372;2022-08-19T00:27:00;22.73;;;17.55;;
68523;SDS011;55524;51.380;13.372;2022-08-19T00:29:27;21.73;;;17.48;;
68523;SDS011;55524;51.380;13.372;2022-08-19T00:31:53;20.73;;;18.08;;
68523;SDS011;55524;51.380;13.372;2022-08-19T00:34:22;20.63;;;17.40;;
68523;SDS011;55524;51.380;13.372;2022-08-19T00:36:48;21.00;;;17.35;;
68523;SDS011;55524;51.380;13.372;2022-08-19T00:39:15;21.10;;;18.40;;
68523;SDS011;55524;51.380;13.372;2022-08-19T00:41:43;21.58;;;18.38;;
68523;SDS011;55524;51.380;13.372;2022-08-19T00:44:14;26.25;;;18.50;;
68523;SDS011;55524;51.380;13.372;2022-08-19T00:46:49;21.33;;;18.40;;
68523;SDS011;55524;51.380;13.372;2022-08-19T00:52:13;24.15;;;19.48;;
68523;SDS011;55524;51.380;13.372;2022-08-19T00:54:41;24.38;;;19.38;;
68523;SDS011;55524;51.380;13.372;2022-08-19T00:57:10;22.80;;;18.88;;
68523;SDS011;55524;51.380;13.372;2022-08-19T00:59:40;27.55;;;18.70;;
68523;SDS011;55524;51.380;13.372;2022-08-19T01:02:10;20.13;;;17.88;;
68523;SDS011;55524;51.380;13.372;2022-08-19T01:04:37;19.67;;;17.60;;
68523;SDS011;55524;51.380;13.372;2022-08-19T01:07:03;20.52;;;17.17;;
68523;SDS011;55524;51.380;13.372;2022-08-19T01:09:30;19.73;;;16.83;;
68523;SDS011;55524;51.380;13.372;2022-08-19T01:11:57;21.00;;;16.27;;
68523;SDS011;55524;51.380;13.372;2022-08-19T01:14:23;20.33;;;16.60;;
68523;SDS011;55524;51.380;13.372;2022-08-19T01:16:50;19.35;;;16.27;;
68523;SDS011;55524;51.380;13.372;2022-08-19T01:21:59;20.42;;;17.52;;
68523;SDS011;55524;51.380;13.372;2022-08-19T01:24:37;21.42;;;17.30;;
68523;SDS011;55524;51.380;13.372;2022-08-19T01:27:04;21.25;;;17.15;;
68523;SDS011;55524;51.380;13.372;2022-08-19T01:29:31;20.45;;;17.52;;
68523;SDS011;55524;51.380;13.372;2022-08-19T01:31:59;20.00;;;16.38;;
68523;SDS011;55524;51.380;13.372;2022-08-19T01:34:26;20.23;;;17.05;;
68523;SDS011;55524;51.380;13.372;2022-08-19T01:36:53;19.80;;;17.67;;
68523;SDS011;55524;51.380;13.372;2022-08-19T01:39:20;22.50;;;18.27;;
68523;SDS011;55524;51.380;13.372;2022-08-19T01:41:49;22.05;;;17.88;;
68523;SDS011;55524;51.380;13.372;2022-08-19T01:44:19;20.77;;;17.20;;
68523;SDS011;55524;51.380;13.372;2022-08-19T01:46:49;21.17;;;17.10;;
68523;SDS011;55524;51.380;13.372;2022-08-19T01:49:20;20.90;;;17.33;;
68523;SDS011;55524;51.380;13.372;2022-08-19T01:51:48;19.23;;;16.50;;
68523;SDS011;55524;51.380;13.372;2022-08-19T01:54:16;19.38;;;17.38;;
68523;SDS011;55524;51.380;13.372;2022-08-19T01:56:43;18.75;;;16.83;;
68523;SDS011;55524;51.380;13.372;2022-08-19T01:59:10;20.92;;;16.98;;
68523;SDS011;55524;51.380;13.372;2022-08-19T02:04:07;17.52;;;15.68;;
68523;SDS011;55524;51.380;13.372;2022-08-19T02:06:34;19.23;;;16.70;;
68523;SDS011;55524;51.380;13.372;2022-08-19T02:09:01;18.08;;;16.15;;
68523;SDS011;55524;51.380;13.372;2022-08-19T02:11:32;21.77;;;16.20;;
68523;SDS011;55524;51.380;13.372;2022-08-19T02:14:01;17.13;;;15.00;;
68523;SDS011;55524;51.380;13.372;2022-08-19T02:16:29;16.92;;;15.02;;
68523;SDS011;55524;51.380;13.372;2022-08-19T02:18:56;17.05;;;15.13;;
68523;SDS011;55524;51.380;13.372;2022-08-19T02:21:27;18.48;;;15.48;;
68523;SDS011;55524;51.380;13.372;2022-08-19T02:23:54;17.25;;;14.70;;
68523;SDS011;55524;51.380;13.372;2022-08-19T02:26:20;18.80;;;14.82;;
68523;SDS011;55524;51.380;13.372;2022-08-19T02:28:47;16.33;;;14.65;;
68523;SDS011;55524;51.380;13.372;2022-08-19T02:31:15;17.35;;;14.65;;
68523;SDS011;55524;51.380;13.372;2022-08-19T02:33:44;16.55;;;14.73;;
68523;SDS011;55524;51.380;13.372;2022-08-19T02:36:11;17.00;;;15.07;;
68523;SDS011;55524;51.380;13.372;2022-08-19T02:38:39;16.58;;;14.90;;
68523;SDS011;55524;51.380;13.372;2022-08-19T02:41:09;19.85;;;15.85;;
68523;SDS011;55524;51.380;13.372;2022-08-19T02:43:45;17.50;;;14.45;;
68523;SDS011;55524;51.380;13.372;2022-08-19T02:46:12;16.17;;;14.57;;
68523;SDS011;55524;51.380;13.372;2022-08-19T02:48:46;16.35;;;14.32;;
68523;SDS011;55524;51.380;13.372;2022-08-19T02:51:26;16.77;;;14.88;;
68523;SDS011;55524;51.380;13.372;2022-08-19T02:53:55;15.60;;;13.65;;
68523;SDS011;55524;51.380;13.372;2022-08-19T02:56:22;15.45;;;13.90;;
68523;SDS011;55524;51.380;13.372;2022-08-19T02:58:52;20.10;;;14.23;;
68523;SDS011;55524;51.380;13.372;2022-08-19T03:03:56;14.48;;;12.93;;
68523;SDS011;55524;51.380;13.372;2022-08-19T03:06:24;16.38;;;14.68;;
68523;SDS011;55524;51.380;13.372;2022-08-19T03:08:52;18.02;;;13.48;;
68523;SDS011;55524;51.380;13.372;2022-08-19T03:11:37;16.85;;;13.70;;
68523;SDS011;55524;51.380;13.372;2022-08-19T03:14:04;15.20;;;13.68;;
68523;SDS011;55524;51.380;13.372;2022-08-19T03:16:33;14.90;;;13.30;;
68523;SDS011;55524;51.380;13.372;2022-08-19T03:19:04;15.35;;;13.75;;
68523;SDS011;55524;51.380;13.372;2022-08-19T03:21:31;15.55;;;14.05;;
68523;SDS011;55524;51.380;13.372;2022-08-19T03:23:59;17.50;;;13.95;;
68523;SDS011;55524;51.380;13.372;2022-08-19T03:26:27;15.43;;;13.88;;
68523;SDS011;55524;51.380;13.372;2022-08-19T03:28:54;14.80;;;13.25;;
68523;SDS011;55524;51.380;13.372;2022-08-19T03:31:21;16.42;;;14.73;;
68523;SDS011;55524;51.380;13.372;2022-08-19T03:33:49;14.85;;;13.25;;
68523;SDS011;55524;51.380;13.372;2022-08-19T03:36:18;16.02;;;13.85;;
68523;SDS011;55524;51.380;13.372;2022-08-19T03:38:49;19.83;;;14.88;;
68523;SDS011;55524;51.380;13.372;2022-08-19T03:41:21;15.82;;;14.07;;
68523;SDS011;55524;51.380;13.372;2022-08-19T03:43:52;17.88;;;13.95;;
68523;SDS011;55524;51.380;13.372;2022-08-19T03:46:23;14.75;;;13.00;;
68523;SDS011;55524;51.380;13.372;2022-08-19T03:48:52;14.88;;;13.38;;
68523;SDS011;55524;51.380;13.372;2022-08-19T03:51:22;14.27;;;12.75;;
68523;SDS011;55524;51.380;13.372;2022-08-19T03:53:57;15.57;;;13.48;;
68523;SDS011;55524;51.380;13.372;2022-08-19T03:56:26;16.75;;;13.68;;
68523;SDS011;55524;51.380;13.372;2022-08-19T03:58:56;14.85;;;12.30;;
68523;SDS011;55524;51.380;13.372;2022-08-19T04:01:27;14.07;;;12.73;;
68523;SDS011;55524;51.380;13.372;2022-08-19T04:03:55;14.45;;;13.05;;
68523;SDS011;55524;51.380;13.372;2022-08-19T04:06:25;14.88;;;13.38;;
68523;SDS011;55524;51.380;13.372;2022-08-19T04:11:49;14.23;;;12.82;;
68523;SDS011;55524;51.380;13.372;2022-08-19T04:14:20;15.87;;;14.07;;
68523;SDS011;55524;51.380;13.372;2022-08-19T04:16:48;14.93;;;13.45;;
68523;SDS011;55524;51.380;13.372;2022-08-19T04:19:16;15.95;;;13.38;;
68523;SDS011;55524;51.380;13.372;2022-08-19T04:21:44;14.25;;;12.85;;
68523;SDS011;55524;51.380;13.372;2022-08-19T04:24:13;16.33;;;13.68;;
68523;SDS011;55524;51.380;13.372;2022-08-19T04:26:40;16.08;;;14.43;;
68523;SDS011;55524;51.380;13.372;2022-08-19T04:29:08;15.80;;;13.90;;
68523;SDS011;55524;51.380;13.372;2022-08-19T04:31:40;16.77;;;14.25;;
68523;SDS011;55524;51.380;13.372;2022-08-19T04:34:10;15.95;;;14.18;;
68523;SDS011;55524;51.380;13.372;2022-08-19T04:36:39;16.42;;;14.75;;
68523;SDS011;55524;51.380;13.372;2022-08-19T04:39:07;16.88;;;14.68;;
68523;SDS011;55524;51.380;13.372;2022-08-19T04:41:36;16.48;;;14.65;;
68523;SDS011;55524;51.380;13.372;2022-08-19T04:44:21;19.63;;;14.93;;
68523;SDS011;55524;51.380;13.372;2022-08-19T04:46:48;18.15;;;14.73;;
68523;SDS011;55524;51.380;13.372;2022-08-19T04:49:16;15.77;;;14.15;;
68523;SDS011;55524;51.380;13.372;2022-08-19T04:51:47;17.27;;;15.35;;
68523;SDS011;55524;51.380;13.372;2022-08-19T04:54:15;16.70;;;14.90;;
68523;SDS011;55524;51.380;13.372;2022-08-19T04:56:42;17.23;;;14.27;;
68523;SDS011;55524;51.380;13.372;2022-08-19T04:59:09;16.92;;;13.88;;
68523;SDS011;55524;51.380;13.372;2022-08-19T05:01:35;16.35;;;14.20;;
68523;SDS011;55524;51.380;13.372;2022-08-19T05:04:03;16.13;;;13.88;;
68523;SDS011;55524;51.380;13.372;2022-08-19T05:06:31;14.70;;;13.02;;
68523;SDS011;55524;51.380;13.372;2022-08-19T05:08:59;14.20;;;12.70;;
68523;SDS011;55524;51.380;13.372;2022-08-19T05:11:28;17.35;;;12.38;;
68523;SDS011;55524;51.380;13.372;2022-08-19T05:13:56;13.93;;;12.45;;
68523;SDS011;55524;51.380;13.372;2022-08-19T05:16:23;15.20;;;12.85;;
68523;SDS011;55524;51.380;13.372;2022-08-19T05:18:50;13.38;;;11.93;;
68523;SDS011;55524;51.380;13.372;2022-08-19T05:21:36;13.25;;;11.95;;
68523;SDS011;55524;51.380;13.372;2022-08-19T05:24:22;15.57;;;13.43;;
68523;SDS011;55524;51.380;13.372;2022-08-19T05:26:51;13.10;;;11.77;;
68523;SDS011;55524;51.380;13.372;2022-08-19T05:29:22;14.65;;;12.85;;
68523;SDS011;55524;51.380;13.372;2022-08-19T05:31:51;14.65;;;13.13;;
68523;SDS011;55524;51.380;13.372;2022-08-19T05:34:18;13.68;;;12.00;;
68523;SDS011;55524;51.380;13.372;2022-08-19T05:36:48;14.50;;;12.32;;
68523;SDS011;55524;51.380;13.372;2022-08-19T05:39:19;16.83;;;12.82;;
68523;SDS011;55524;51.380;13.372;2022-08-19T05:41:47;13.93;;;12.25;;
68523;SDS011;55524;51.380;13.372;2022-08-19T05:44:17;13.20;;;11.77;;
68523;SDS011;55524;51.380;13.372;2022-08-19T05:46:45;13.65;;;12.25;;
68523;SDS011;55524;51.380;13.372;2022-08-19T05:49:18;14.15;;;12.57;;
68523;SDS011;55524;51.380;13.372;2022-08-19T05:51:46;14.15;;;12.40;;
68523;SDS011;55524;51.380;13.372;2022-08-19T05:54:13;14.13;;;12.73;;
68523;SDS011;55524;51.380;13.372;2022-08-19T05:56:40;14.45;;;12.52;;
68523;SDS011;55524;51.380;13.372;2022-08-19T05:59:08;14.40;;;12.40;;
68523;SDS011;55524;51.380;13.372;2022-08-19T06:01:37;18.70;;;13.00;;
68523;SDS011;55524;51.380;13.372;2022-08-19T06:04:05;21.63;;;13.10;;
68523;SDS011;55524;51.380;13.372;2022-08-19T06:06:32;14.90;;;12.82;;
68523;SDS011;55524;51.380;13.372;2022-08-19T06:09:00;18.75;;;12.75;;
68523;SDS011;55524;51.380;13.372;2022-08-19T06:11:38;15.80;;;13.20;;
68523;SDS011;55524;51.380;13.372;2022-08-19T06:14:09;13.93;;;12.57;;
68523;SDS011;55524;51.380;13.372;2022-08-19T06:16:38;14.77;;;12.18;;
68523;SDS011;55524;51.380;13.372;2022-08-19T06:19:08;15.90;;;13.27;;
68523;SDS011;55524;51.380;13.372;2022-08-19T06:21:36;16.85;;;13.40;;
68523;SDS011;55524;51.380;13.372;2022-08-19T06:24:05;17.27;;;14.15;;
68523;SDS011;55524;51.380;13.372;2022-08-19T06:26:34;13.98;;;12.45;;
68523;SDS011;55524;51.380;13.372;2022-08-19T06:29:02;15.40;;;13.77;;
68523;SDS011;55524;51.380;13.372;2022-08-19T06:31:31;14.90;;;13.40;;
68523;SDS011;55524;51.380;13.372;2022-08-19T06:33:59;14.38;;;12.98;;
68523;SDS011;55524;51.380;13.372;2022-08-19T06:36:32;15.05;;;13.18;;
68523;SDS011;55524;51.380;13.372;2022-08-19T06:39:02;15.82;;;13.57;;
68523;SDS011;55524;51.380;13.372;2022-08-19T06:41:32;15.55;;;13.95;;
68523;SDS011;55524;51.380;13.372;2022-08-19T06:44:02;17.08;;;14.77;;
68523;SDS011;55524;51.380;13.372;2022-08-19T06:46:29;18.08;;;15.25;;
68523;SDS011;55524;51.380;13.372;2022-08-19T06:48:55;16.20;;;14.55;;
68523;SDS011;55524;51.380;13.372;2022-08-19T06:51:22;17.23;;;15.43;;
68523;SDS011;55524;51.380;13.372;2022-08-19T06:53:50;18.95;;;14.82;;
68523;SDS011;55524;51.380;13.372;2022-08-19T06:56:20;16.35;;;14.63;;
68523;SDS011;55524;51.380;13.372;2022-08-19T06:58:50;16.38;;;14.68;;
68523;SDS011;55524;51.380;13.372;2022-08-19T07:01:17;18.52;;;14.75;;
68523;SDS011;55524;51.380;13.372;2022-08-19T07:03:44;21.98;;;14.82;;
68523;SDS011;55524;51.380;13.372;2022-08-19T07:06:15;19.08;;;15.20;;
68523;SDS011;55524;51.380;13.372;2022-08-19T07:11:10;24.85;;;16.30;;
68523;SDS011;55524;51.380;13.372;2022-08-19T07:13:39;18.35;;;16.42;;
68523;SDS011;55524;51.380;13.372;2022-08-19T07:16:09;18.42;;;15.35;;
68523;SDS011;55524;51.380;13.372;2022-08-19T07:18:40;18.92;;;15.68;;
68523;SDS011;55524;51.380;13.372;2022-08-19T07:21:12;18.38;;;15.65;;
68523;SDS011;55524;51.380;13.372;2022-08-19T07:23:41;17.27;;;15.48;;
68523;SDS011;55524;51.380;13.372;2022-08-19T07:26:10;17.45;;;15.32;;
68523;SDS011;55524;51.380;13.372;2022-08-19T07:28:45;17.67;;;15.82;;
68523;SDS011;55524;51.380;13.372;2022-08-19T07:31:13;17.38;;;15.57;;
68523;SDS011;55524;51.380;13.372;2022-08-19T07:33:51;18.02;;;15.25;;
68523;SDS011;55524;51.380;13.372;2022-08-19T07:36:26;18.50;;;15.27;;
68523;SDS011;55524;51.380;13.372;2022-08-19T07:39:15;17.20;;;15.05;;
68523;SDS011;55524;51.380;13.372;2022-08-19T07:41:44;19.70;;;16.05;;
68523;SDS011;55524;51.380;13.372;2022-08-19T07:44:12;22.83;;;16.77;;
68523;SDS011;55524;51.380;13.372;2022-08-19T07:46:40;21.10;;;16.98;;
68523;SDS011;55524;51.380;13.372;2022-08-19T07:49:10;22.45;;;16.10;;
68523;SDS011;55524;51.380;13.372;2022-08-19T07:51:42;28.63;;;17.10;;
68523;SDS011;55524;51.380;13.372;2022-08-19T07:54:10;26.95;;;17.23;;
68523;SDS011;55524;51.380;13.372;2022-08-19T07:56:36;17.98;;;15.55;;
68523;SDS011;55524;51.380;13.372;2022-08-19T07:59:03;20.08;;;15.63;;
68523;SDS011;55524;51.380;13.372;2022-08-19T08:01:29;19.42;;;16.98;;
68523;SDS011;55524;51.380;13.372;2022-08-19T08:03:56;17.80;;;15.98;;
68523;SDS011;55524;51.380;13.372;2022-08-19T08:06:42;20.30;;;16.38;;
68523;SDS011;55524;51.380;13.372;2022-08-19T08:09:31;18.88;;;16.45;;
68523;SDS011;55524;51.380;13.372;2022-08-19T08:12:05;18.65;;;16.27;;
68523;SDS011;55524;51.380;13.372;2022-08-19T08:14:37;19.20;;;17.08;;
68523;SDS011;55524;51.380;13.372;2022-08-19T08:17:04;20.38;;;17.90;;
68523;SDS011;55524;51.380;13.372;2022-08-19T08:19:32;20.60;;;17.88;;
68523;SDS011;55524;51.380;13.372;2022-08-19T08:21:59;19.60;;;17.60;;
68523;SDS011;55524;51.380;13.372;2022-08-19T08:24:28;19.98;;;17.90;;
68523;SDS011;55524;51.380;13.372;2022-08-19T08:29:26;19.98;;;17.80;;
68523;SDS011;55524;51.380;13.372;2022-08-19T08:31:54;25.48;;;18.95;;
68523;SDS011;55524;51.380;13.372;2022-08-19T08:34:22;20.45;;;17.90;;
68523;SDS011;55524;51.380;13.372;2022-08-19T08:36:49;21.52;;;19.02;;
68523;SDS011;55524;51.380;13.372;2022-08-19T08:39:17;23.52;;;17.75;;
68523;SDS011;55524;51.380;13.372;2022-08-19T08:41:59;20.35;;;18.17;;
68523;SDS011;55524;51.380;13.372;2022-08-19T08:44:53;23.95;;;17.88;;
68523;SDS011;55524;51.380;13.372;2022-08-19T08:47:32;22.00;;;17.35;;
68523;SDS011;55524;51.380;13.372;2022-08-19T08:50:08;22.63;;;16.88;;
68523;SDS011;55524;51.380;13.372;2022-08-19T08:52:45;19.92;;;16.65;;
68523;SDS011;55524;51.380;13.372;2022-08-19T08:55:20;20.77;;;17.88;;
68523;SDS011;55524;51.380;13.372;2022-08-19T09:02:50;18.30;;;15.82;;
68523;SDS011;55524;51.380;13.372;2022-08-19T09:05:16;21.88;;;17.75;;
68523;SDS011;55524;51.380;13.372;2022-08-19T09:15:42;21.92;;;16.20;;
68523;SDS011;55524;51.380;13.372;2022-08-19T09:18:13;18.73;;;15.02;;
68523;SDS011;55524;51.380;13.372;2022-08-19T09:20:41;15.82;;;13.93;;
68523;SDS011;55524;51.380;13.372;2022-08-19T09:23:07;17.92;;;15.23;;
68523;SDS011;55524;51.380;13.372;2022-08-19T09:25:35;22.33;;;14.73;;
68523;SDS011;55524;51.380;13.372;2022-08-19T09:28:02;16.60;;;14.73;;
68523;SDS011;55524;51.380;13.372;2022-08-19T09:30:30;17.88;;;15.40;;
68523;SDS011;55524;51.380;13.372;2022-08-19T09:33:04;47.40;;;17.77;;
68523;SDS011;55524;51.380;13.372;2022-08-19T09:35:31;19.88;;;15.27;;
68523;SDS011;55524;51.380;13.372;2022-08-19T09:37:58;25.00;;;15.25;;
68523;SDS011;55524;51.380;13.372;2022-08-19T09:40:29;21.10;;;15.13;;
68523;SDS011;55524;51.380;13.372;2022-08-19T09:42:55;44.60;;;16.17;;
68523;SDS011;55524;51.380;13.372;2022-08-19T09:45:27;18.50;;;16.15;;
68523;SDS011;55524;51.380;13.372;2022-08-19T09:47:53;38.47;;;17.60;;
68523;SDS011;55524;51.380;13.372;2022-08-19T09:50:21;22.50;;;17.35;;
68523;SDS011;55524;51.380;13.372;2022-08-19T09:52:51;19.23;;;15.60;;
68523;SDS011;55524;51.380;13.372;2022-08-19T09:55:27;32.42;;;15.25;;
68523;SDS011;55524;51.380;13.372;2022-08-19T09:57:53;18.60;;;14.55;;
68523;SDS011;55524;51.380;13.372;2022-08-19T10:00:20;29.75;;;16.27;;
68523;SDS011;55524;51.380;13.372;2022-08-19T10:02:46;21.40;;;15.60;;
68523;SDS011;55524;51.380;13.372;2022-08-19T10:05:12;18.63;;;15.07;;
68523;SDS011;55524;51.380;13.372;2022-08-19T10:07:57;19.65;;;14.38;;
68523;SDS011;55524;51.380;13.372;2022-08-19T10:10:25;26.55;;;16.77;;
68523;SDS011;55524;51.380;13.372;2022-08-19T10:12:52;19.95;;;15.20;;
68523;SDS011;55524;51.380;13.372;2022-08-19T10:15:19;25.42;;;17.10;;
68523;SDS011;55524;51.380;13.372;2022-08-19T10:17:46;19.90;;;16.20;;
68523;SDS011;55524;51.380;13.372;2022-08-19T10:20:12;21.08;;;17.58;;
68523;SDS011;55524;51.380;13.372;2022-08-19T10:22:38;23.27;;;17.63;;
68523;SDS011;55524;51.380;13.372;2022-08-19T10:25:09;21.73;;;17.42;;
68523;SDS011;55524;51.380;13.372;2022-08-19T10:27:44;23.38;;;18.80;;
68523;SDS011;55524;51.380;13.372;2022-08-19T10:30:10;22.30;;;18.88;;
68523;SDS011;55524;51.380;13.372;2022-08-19T10:32:37;22.55;;;18.73;;
68523;SDS011;55524;51.380;13.372;2022-08-19T10:35:03;23.15;;;19.33;;
68523;SDS011;55524;51.380;13.372;2022-08-19T10:37:34;21.73;;;18.58;;
68523;SDS011;55524;51.380;13.372;2022-08-19T10:40:02;24.58;;;18.98;;
68523;SDS011;55524;51.380;13.372;2022-08-19T10:42:32;24.97;;;18.57;;
68523;SDS011;55524;51.380;13.372;2022-08-19T10:44:59;24.88;;;19.33;;
68523;SDS011;55524;51.380;13.372;2022-08-19T10:47:26;22.65;;;18.15;;
68523;SDS011;55524;51.380;13.372;2022-08-19T10:49:52;34.75;;;25.75;;
68523;SDS011;55524;51.380;13.372;2022-08-19T10:52:42;35.22;;;24.42;;
68523;SDS011;55524;51.380;13.372;2022-08-19T10:55:10;34.63;;;26.48;;
68523;SDS011;55524;51.380;13.372;2022-08-19T10:57:55;34.63;;;25.95;;
68523;SDS011;55524;51.380;13.372;2022-08-19T11:00:22;37.67;;;25.90;;
68523;SDS011;55524;51.380;13.372;2022-08-19T11:02:50;42.67;;;28.75;;
68523;SDS011;55524;51.380;13.372;2022-08-19T11:05:17;44.88;;;28.77;;
68523;SDS011;55524;51.380;13.372;2022-08-19T11:07:44;41.17;;;27.40;;
68523;SDS011;55524;51.380;13.372;2022-08-19T11:10:11;52.10;;;29.58;;
68523;SDS011;55524;51.380;13.372;2022-08-19T11:12:40;49.20;;;29.52;;
68523;SDS011;55524;51.380;13.372;2022-08-19T11:15:09;42.42;;;27.75;;
68523;SDS011;55524;51.380;13.372;2022-08-19T11:17:37;45.03;;;28.23;;
68523;SDS011;55524;51.380;13.372;2022-08-19T11:20:06;44.50;;;26.63;;
68523;SDS011;55524;51.380;13.372;2022-08-19T11:22:34;43.92;;;26.58;;
68523;SDS011;55524;51.380;13.372;2022-08-19T11:25:00;38.50;;;25.50;;
68523;SDS011;55524;51.380;13.372;2022-08-19T11:27:27;41.22;;;25.20;;
68523;SDS011;55524;51.380;13.372;2022-08-19T11:29:54;33.67;;;23.88;;
68523;SDS011;55524;51.380;13.372;2022-08-19T11:32:20;52.42;;;26.88;;
68523;SDS011;55524;51.380;13.372;2022-08-19T11:34:46;37.63;;;25.83;;
68523;SDS011;55524;51.380;13.372;2022-08-19T11:37:12;35.83;;;25.45;;
68523;SDS011;55524;51.380;13.372;2022-08-19T11:39:39;37.58;;;26.08;;
68523;SDS011;55524;51.380;13.372;2022-08-19T11:42:05;38.65;;;26.27;;
68523;SDS011;55524;51.380;13.372;2022-08-19T11:44:52;35.72;;;24.55;;
68523;SDS011;55524;51.380;13.372;2022-08-19T11:47:19;38.92;;;25.58;;
68523;SDS011;55524;51.380;13.372;2022-08-19T11:49:46;37.30;;;26.90;;
68523;SDS011;55524;51.380;13.372;2022-08-19T11:52:13;34.45;;;25.05;;
68523;SDS011;55524;51.380;13.372;2022-08-19T11:54:39;35.33;;;25.40;;
68523;SDS011;55524;51.380;13.372;2022-08-19T11:57:05;41.08;;;25.73;;
68523;SDS011;55524;51.380;13.372;2022-08-19T11:59:31;33.38;;;24.02;;
68523;SDS011;55524;51.380;13.372;2022-08-19T12:01:58;35.55;;;22.98;;
68523;SDS011;55524;51.380;13.372;2022-08-19T12:04:24;28.90;;;21.35;;
68523;SDS011;55524;51.380;13.372;2022-08-19T12:06:50;33.25;;;22.20;;
68523;SDS011;55524;51.380;13.372;2022-08-19T12:09:16;27.05;;;21.42;;
68523;SDS011;55524;51.380;13.372;2022-08-19T12:11:43;29.17;;;21.80;;
68523;SDS011;55524;51.380;13.372;2022-08-19T12:14:10;28.60;;;22.10;;
68523;SDS011;55524;51.380;13.372;2022-08-19T12:16:39;31.05;;;21.85;;
68523;SDS011;55524;51.380;13.372;2022-08-19T12:21:36;27.65;;;22.20;;
68523;SDS011;55524;51.380;13.372;2022-08-19T12:24:03;30.10;;;21.85;;
68523;SDS011;55524;51.380;13.372;2022-08-19T12:26:30;28.85;;;22.27;;
68523;SDS011;55524;51.380;13.372;2022-08-19T12:28:57;32.03;;;21.98;;
68523;SDS011;55524;51.380;13.372;2022-08-19T12:31:24;39.92;;;23.15;;
68523;SDS011;55524;51.380;13.372;2022-08-19T12:33:54;37.92;;;21.70;;
68523;SDS011;55524;51.380;13.372;2022-08-19T12:36:21;60.35;;;25.15;;
68523;SDS011;55524;51.380;13.372;2022-08-19T12:38:48;32.00;;;22.63;;
68523;SDS011;55524;51.380;13.372;2022-08-19T12:41:15;27.05;;;22.17;;
68523;SDS011;55524;51.380;13.372;2022-08-19T12:43:43;31.17;;;22.17;;
68523;SDS011;55524;51.380;13.372;2022-08-19T12:46:10;27.65;;;21.80;;
68523;SDS011;55524;51.380;13.372;2022-08-19T12:48:37;27.13;;;21.08;;
68523;SDS011;55524;51.380;13.372;2022-08-19T12:51:07;27.40;;;21.60;;
68523;SDS011;55524;51.380;13.372;2022-08-19T12:53:35;25.98;;;21.38;;
68523;SDS011;55524;51.380;13.372;2022-08-19T12:56:02;37.58;;;22.33;;
68523;SDS011;55524;51.380;13.372;2022-08-19T12:58:29;30.58;;;23.10;;
68523;SDS011;55524;51.380;13.372;2022-08-19T13:00:56;34.60;;;22.45;;
68523;SDS011;55524;51.380;13.372;2022-08-19T13:03:22;32.63;;;23.70;;
68523;SDS011;55524;51.380;13.372;2022-08-19T13:05:54;30.88;;;23.10;;
68523;SDS011;55524;51.380;13.372;2022-08-19T13:08:20;35.13;;;25.27;;
68523;SDS011;55524;51.380;13.372;2022-08-19T13:10:46;31.90;;;23.63;;
68523;SDS011;55524;51.380;13.372;2022-08-19T13:13:13;34.65;;;25.60;;
68523;SDS011;55524;51.380;13.372;2022-08-19T13:15:40;35.33;;;24.80;;
68523;SDS011;55524;51.380;13.372;2022-08-19T13:18:09;30.60;;;23.80;;
68523;SDS011;55524;51.380;13.372;2022-08-19T13:20:37;37.17;;;25.50;;
68523;SDS011;55524;51.380;13.372;2022-08-19T13:23:08;33.25;;;23.83;;
68523;SDS011;55524;51.380;13.372;2022-08-19T13:25:35;29.13;;;23.33;;
68523;SDS011;55524;51.380;13.372;2022-08-19T13:28:01;33.17;;;23.98;;
68523;SDS011;55524;51.380;13.372;2022-08-19T13:30:28;28.77;;;22.45;;
68523;SDS011;55524;51.380;13.372;2022-08-19T13:33:13;26.92;;;21.60;;
68523;SDS011;55524;51.380;13.372;2022-08-19T13:35:45;32.97;;;23.02;;
68523;SDS011;55524;51.380;13.372;2022-08-19T13:38:20;28.85;;;22.42;;
68523;SDS011;55524;51.380;13.372;2022-08-19T13:40:48;29.15;;;21.65;;
68523;SDS011;55524;51.380;13.372;2022-08-19T13:43:16;29.17;;;20.98;;
68523;SDS011;55524;51.380;13.372;2022-08-19T13:45:44;28.17;;;22.55;;
68523;SDS011;55524;51.380;13.372;2022-08-19T13:48:10;31.60;;;23.48;;
68523;SDS011;55524;51.380;13.372;2022-08-19T13:50:41;26.85;;;21.45;;
68523;SDS011;55524;51.380;13.372;2022-08-19T13:53:10;30.67;;;22.70;;
68523;SDS011;55524;51.380;13.372;2022-08-19T13:55:37;35.42;;;24.52;;
68523;SDS011;55524;51.380;13.372;2022-08-19T13:58:05;26.55;;;20.63;;
68523;SDS011;55524;51.380;13.372;2022-08-19T14:00:34;30.08;;;22.08;;
68523;SDS011;55524;51.380;13.372;2022-08-19T14:03:05;52.95;;;26.80;;
68523;SDS011;55524;51.380;13.372;2022-08-19T14:05:31;95.60;;;44.35;;
68523;SDS011;55524;51.380;13.372;2022-08-19T14:07:58;32.45;;;21.35;;
68523;SDS011;55524;51.380;13.372;2022-08-19T14:10:25;27.25;;;21.60;;
68523;SDS011;55524;51.380;13.372;2022-08-19T14:12:56;28.38;;;21.27;;
68523;SDS011;55524;51.380;13.372;2022-08-19T14:15:24;29.25;;;22.30;;
68523;SDS011;55524;51.380;13.372;2022-08-19T14:17:51;29.05;;;22.52;;
68523;SDS011;55524;51.380;13.372;2022-08-19T14:20:17;30.60;;;22.50;;
68523;SDS011;55524;51.380;13.372;2022-08-19T14:22:45;31.33;;;22.85;;
68523;SDS011;55524;51.380;13.372;2022-08-19T14:25:13;29.00;;;24.00;;
68523;SDS011;55524;51.380;13.372;2022-08-19T14:27:45;28.92;;;23.00;;
68523;SDS011;55524;51.380;13.372;2022-08-19T14:30:14;29.80;;;23.13;;
68523;SDS011;55524;51.380;13.372;2022-08-19T14:32:42;33.13;;;23.77;;
68523;SDS011;55524;51.380;13.372;2022-08-19T14:35:09;34.88;;;24.75;;
68523;SDS011;55524;51.380;13.372;2022-08-19T14:37:37;31.02;;;24.95;;
68523;SDS011;55524;51.380;13.372;2022-08-19T14:40:05;33.92;;;24.33;;
68523;SDS011;55524;51.380;13.372;2022-08-19T14:42:32;35.55;;;23.83;;
68523;SDS011;55524;51.380;13.372;2022-08-19T14:44:59;32.67;;;23.20;;
68523;SDS011;55524;51.380;13.372;2022-08-19T14:47:26;31.83;;;25.08;;
68523;SDS011;55524;51.380;13.372;2022-08-19T14:49:52;30.10;;;23.77;;
68523;SDS011;55524;51.380;13.372;2022-08-19T14:52:19;31.23;;;22.75;;